sensor_id;sensor_type;location;lat;lon;timestamp;P1;durP1;ratioP1;P2;durP2;ratioP2
28174;SDS011;59417;44.788;10.334;2023-12-28T00:01:17;43.78;;;32.78;;
28174;SDS011;59417;44.788;10.334;2023-12-28T00:03:45;46.70;;;32.65;;
28174;SDS011;59417;44.788;10.334;2023-12-28T00:06:13;46.00;;;34.15;;
28174;SDS011;59417;44.788;10.334;2023-12-28T00:08:44;46.95;;;33.33;;
28174;SDS011;59417;44.788;10.334;2023-12-28T00:11:15;46.10;;;32.53;;
28174;SDS011;59417;44.788;10.334;2023-12-28T00:13:51;42.42;;;32.38;;
28174;SDS011;59417;44.788;10.334;2023-12-28T00:16:20;51.55;;;33.90;;
28174;SDS011;59417;44.788;10.334;2023-12-28T00:18:49;44.40;;;33.30;;
28174;SDS011;59417;44.788;10.334;2023-12-28T00:21:30;47.28;;;34.80;;
28174;SDS011;59417;44.788;10.334;2023-12-28T00:24:03;53.53;;;34.97;;
28174;SDS011;59417;44.788;10.334;2023-12-28T00:26:38;56.47;;;34.95;;
28174;SDS011;59417;44.788;10.334;2023-12-28T00:29:10;43.47;;;32.90;;
28174;SDS011;59417;44.788;10.334;2023-12-28T00:31:41;48.40;;;34.20;;
28174;SDS011;59417;44.788;10.334;2023-12-28T00:34:11;47.35;;;32.75;;
28174;SDS011;59417;44.788;10.334;2023-12-28T00:39:10;50.17;;;34.57;;
28174;SDS011;59417;44.788;10.334;2023-12-28T00:41:43;50.97;;;34.50;;
28174;SDS011;59417;44.788;10.334;2023-12-28T00:44:19;47.90;;;34.45;;
28174;SDS011;59417;44.788;10.334;2023-12-28T00:46:51;49.65;;;34.17;;
28174;SDS011;59417;44.788;10.334;2023-12-28T00:49:23;54.30;;;35.40;;
28174;SDS011;59417;44.788;10.334;2023-12-28T00:54:29;50.75;;;33.17;;
28174;SDS011;59417;44.788;10.334;2023-12-28T00:57:08;45.35;;;33.33;;
28174;SDS011;59417;44.788;10.334;2023-12-28T00:59:36;52.13;;;34.40;;
28174;SDS011;59417;44.788;10.334;2023-12-28T01:02:04;51.35;;;34.08;;
28174;SDS011;59417;44.788;10.334;2023-12-28T01:04:31;51.03;;;34.28;;
28174;SDS011;59417;44.788;10.334;2023-12-28T01:06:59;52.38;;;34.97;;
28174;SDS011;59417;44.788;10.334;2023-12-28T01:09:34;44.72;;;33.92;;
28174;SDS011;59417;44.788;10.334;2023-12-28T01:12:09;50.42;;;34.85;;
28174;SDS011;59417;44.788;10.334;2023-12-28T01:14:42;49.80;;;33.97;;
28174;SDS011;59417;44.788;10.334;2023-12-28T01:17:14;49.33;;;34.00;;
28174;SDS011;59417;44.788;10.334;2023-12-28T01:19:47;48.80;;;32.75;;
28174;SDS011;59417;44.788;10.334;2023-12-28T01:22:18;50.17;;;35.42;;
28174;SDS011;59417;44.788;10.334;2023-12-28T01:24:48;48.33;;;34.03;;
28174;SDS011;59417;44.788;10.334;2023-12-28T01:27:24;48.17;;;33.00;;
28174;SDS011;59417;44.788;10.334;2023-12-28T01:30:00;43.70;;;33.25;;
28174;SDS011;59417;44.788;10.334;2023-12-28T01:32:27;50.30;;;34.30;;
28174;SDS011;59417;44.788;10.334;2023-12-28T01:34:54;49.63;;;33.47;;
28174;SDS011;59417;44.788;10.334;2023-12-28T01:37:23;46.90;;;32.97;;
28174;SDS011;59417;44.788;10.334;2023-12-28T01:40:08;47.25;;;32.42;;
28174;SDS011;59417;44.788;10.334;2023-12-28T01:42:35;46.80;;;32.88;;
28174;SDS011;59417;44.788;10.334;2023-12-28T01:45:02;51.03;;;35.65;;
28174;SDS011;59417;44.788;10.334;2023-12-28T01:47:32;49.13;;;33.33;;
28174;SDS011;59417;44.788;10.334;2023-12-28T01:50:05;47.58;;;34.65;;
28174;SDS011;59417;44.788;10.334;2023-12-28T01:52:51;48.45;;;33.03;;
28174;SDS011;59417;44.788;10.334;2023-12-28T01:55:35;47.22;;;34.30;;
28174;SDS011;59417;44.788;10.334;2023-12-28T01:58:02;46.20;;;34.72;;
28174;SDS011;59417;44.788;10.334;2023-12-28T02:00:32;55.13;;;34.85;;
28174;SDS011;59417;44.788;10.334;2023-12-28T02:03:05;50.08;;;34.70;;
28174;SDS011;59417;44.788;10.334;2023-12-28T02:05:33;51.60;;;35.15;;
28174;SDS011;59417;44.788;10.334;2023-12-28T02:08:03;52.70;;;35.42;;
28174;SDS011;59417;44.788;10.334;2023-12-28T02:12:59;52.47;;;34.47;;
28174;SDS011;59417;44.788;10.334;2023-12-28T02:15:38;44.70;;;32.97;;
28174;SDS011;59417;44.788;10.334;2023-12-28T02:18:09;44.30;;;34.42;;
28174;SDS011;59417;44.788;10.334;2023-12-28T02:20:39;42.17;;;33.58;;
28174;SDS011;59417;44.788;10.334;2023-12-28T02:23:11;46.53;;;32.47;;
28174;SDS011;59417;44.788;10.334;2023-12-28T02:25:38;40.55;;;29.98;;
28174;SDS011;59417;44.788;10.334;2023-12-28T02:28:17;47.17;;;32.45;;
28174;SDS011;59417;44.788;10.334;2023-12-28T02:30:45;39.10;;;29.95;;
28174;SDS011;59417;44.788;10.334;2023-12-28T02:33:24;43.97;;;29.25;;
28174;SDS011;59417;44.788;10.334;2023-12-28T02:36:02;41.80;;;28.95;;
28174;SDS011;59417;44.788;10.334;2023-12-28T02:38:36;45.58;;;29.60;;
28174;SDS011;59417;44.788;10.334;2023-12-28T02:41:12;39.80;;;28.65;;
28174;SDS011;59417;44.788;10.334;2023-12-28T02:43:40;44.75;;;29.58;;
28174;SDS011;59417;44.788;10.334;2023-12-28T02:46:08;40.70;;;29.75;;
28174;SDS011;59417;44.788;10.334;2023-12-28T02:48:36;44.70;;;29.95;;
28174;SDS011;59417;44.788;10.334;2023-12-28T02:51:05;38.85;;;29.08;;
28174;SDS011;59417;44.788;10.334;2023-12-28T02:53:33;42.55;;;31.77;;
28174;SDS011;59417;44.788;10.334;2023-12-28T02:56:04;45.45;;;31.85;;
28174;SDS011;59417;44.788;10.334;2023-12-28T02:58:31;48.92;;;33.63;;
28174;SDS011;59417;44.788;10.334;2023-12-28T03:01:00;46.67;;;33.92;;
28174;SDS011;59417;44.788;10.334;2023-12-28T03:03:30;44.35;;;31.67;;
28174;SDS011;59417;44.788;10.334;2023-12-28T03:05:57;44.45;;;32.38;;
28174;SDS011;59417;44.788;10.334;2023-12-28T03:08:30;45.63;;;31.10;;
28174;SDS011;59417;44.788;10.334;2023-12-28T03:10:59;51.55;;;33.78;;
28174;SDS011;59417;44.788;10.334;2023-12-28T03:13:26;45.75;;;31.75;;
28174;SDS011;59417;44.788;10.334;2023-12-28T03:15:52;50.28;;;34.35;;
28174;SDS011;59417;44.788;10.334;2023-12-28T03:18:20;48.67;;;33.95;;
28174;SDS011;59417;44.788;10.334;2023-12-28T03:20:51;50.65;;;35.60;;
28174;SDS011;59417;44.788;10.334;2023-12-28T03:23:18;49.63;;;35.30;;
28174;SDS011;59417;44.788;10.334;2023-12-28T03:25:46;54.17;;;35.35;;
28174;SDS011;59417;44.788;10.334;2023-12-28T03:28:21;48.05;;;33.80;;
28174;SDS011;59417;44.788;10.334;2023-12-28T03:30:51;42.92;;;34.10;;
28174;SDS011;59417;44.788;10.334;2023-12-28T03:33:18;47.22;;;34.80;;
28174;SDS011;59417;44.788;10.334;2023-12-28T03:35:46;47.45;;;34.20;;
28174;SDS011;59417;44.788;10.334;2023-12-28T03:38:15;49.20;;;34.50;;
28174;SDS011;59417;44.788;10.334;2023-12-28T03:40:43;51.00;;;34.50;;
28174;SDS011;59417;44.788;10.334;2023-12-28T03:43:18;55.17;;;36.30;;
28174;SDS011;59417;44.788;10.334;2023-12-28T03:45:45;48.33;;;34.22;;
28174;SDS011;59417;44.788;10.334;2023-12-28T03:48:13;47.00;;;32.83;;
28174;SDS011;59417;44.788;10.334;2023-12-28T03:50:41;47.30;;;33.03;;
28174;SDS011;59417;44.788;10.334;2023-12-28T03:53:09;46.50;;;33.08;;
28174;SDS011;59417;44.788;10.334;2023-12-28T03:55:37;40.88;;;31.25;;
28174;SDS011;59417;44.788;10.334;2023-12-28T03:58:10;41.35;;;30.02;;
28174;SDS011;59417;44.788;10.334;2023-12-28T04:00:42;34.05;;;25.58;;
28174;SDS011;59417;44.788;10.334;2023-12-28T04:03:10;39.17;;;26.80;;
28174;SDS011;59417;44.788;10.334;2023-12-28T04:05:37;33.83;;;24.33;;
28174;SDS011;59417;44.788;10.334;2023-12-28T04:08:11;36.72;;;25.33;;
28174;SDS011;59417;44.788;10.334;2023-12-28T04:10:40;36.30;;;24.75;;
28174;SDS011;59417;44.788;10.334;2023-12-28T04:13:07;34.08;;;23.63;;
28174;SDS011;59417;44.788;10.334;2023-12-28T04:15:35;31.58;;;22.38;;
28174;SDS011;59417;44.788;10.334;2023-12-28T04:18:10;32.13;;;23.48;;
28174;SDS011;59417;44.788;10.334;2023-12-28T04:20:43;34.22;;;22.65;;
28174;SDS011;59417;44.788;10.334;2023-12-28T04:25:52;33.50;;;20.90;;
28174;SDS011;59417;44.788;10.334;2023-12-28T04:28:26;26.95;;;20.20;;
28174;SDS011;59417;44.788;10.334;2023-12-28T04:30:55;30.83;;;22.15;;
28174;SDS011;59417;44.788;10.334;2023-12-28T04:33:32;29.52;;;21.08;;
28174;SDS011;59417;44.788;10.334;2023-12-28T04:36:04;28.67;;;21.90;;
28174;SDS011;59417;44.788;10.334;2023-12-28T04:38:36;29.02;;;20.92;;
28174;SDS011;59417;44.788;10.334;2023-12-28T04:41:05;29.83;;;22.33;;
28174;SDS011;59417;44.788;10.334;2023-12-28T04:43:32;31.40;;;21.85;;
28174;SDS011;59417;44.788;10.334;2023-12-28T04:46:04;33.67;;;24.35;;
28174;SDS011;59417;44.788;10.334;2023-12-28T04:48:35;39.47;;;26.10;;
28174;SDS011;59417;44.788;10.334;2023-12-28T04:51:04;37.03;;;27.52;;
28174;SDS011;59417;44.788;10.334;2023-12-28T04:53:35;31.42;;;22.60;;
28174;SDS011;59417;44.788;10.334;2023-12-28T04:56:03;38.35;;;27.75;;
28174;SDS011;59417;44.788;10.334;2023-12-28T04:58:36;45.13;;;31.65;;
28174;SDS011;59417;44.788;10.334;2023-12-28T05:01:06;43.38;;;30.67;;
28174;SDS011;59417;44.788;10.334;2023-12-28T05:03:33;50.22;;;33.78;;
28174;SDS011;59417;44.788;10.334;2023-12-28T05:06:04;45.90;;;33.58;;
28174;SDS011;59417;44.788;10.334;2023-12-28T05:08:32;50.17;;;35.95;;
28174;SDS011;59417;44.788;10.334;2023-12-28T05:10:59;49.50;;;34.60;;
28174;SDS011;59417;44.788;10.334;2023-12-28T05:13:31;50.28;;;34.35;;
28174;SDS011;59417;44.788;10.334;2023-12-28T05:16:01;45.47;;;30.92;;
28174;SDS011;59417;44.788;10.334;2023-12-28T05:18:33;46.83;;;32.88;;
28174;SDS011;59417;44.788;10.334;2023-12-28T05:21:00;51.92;;;34.47;;
28174;SDS011;59417;44.788;10.334;2023-12-28T05:23:34;46.42;;;31.70;;
28174;SDS011;59417;44.788;10.334;2023-12-28T05:26:13;45.45;;;30.45;;
28174;SDS011;59417;44.788;10.334;2023-12-28T05:28:43;47.55;;;31.48;;
28174;SDS011;59417;44.788;10.334;2023-12-28T05:31:12;48.15;;;32.38;;
28174;SDS011;59417;44.788;10.334;2023-12-28T05:33:38;45.53;;;32.80;;
28174;SDS011;59417;44.788;10.334;2023-12-28T05:36:18;42.83;;;32.00;;
28174;SDS011;59417;44.788;10.334;2023-12-28T05:38:56;53.40;;;35.40;;
28174;SDS011;59417;44.788;10.334;2023-12-28T05:41:27;50.97;;;34.45;;
28174;SDS011;59417;44.788;10.334;2023-12-28T05:43:53;55.00;;;36.17;;
28174;SDS011;59417;44.788;10.334;2023-12-28T05:46:20;48.47;;;34.30;;
28174;SDS011;59417;44.788;10.334;2023-12-28T05:48:48;48.20;;;32.45;;
28174;SDS011;59417;44.788;10.334;2023-12-28T05:51:20;50.55;;;34.72;;
28174;SDS011;59417;44.788;10.334;2023-12-28T05:53:50;49.53;;;33.00;;
28174;SDS011;59417;44.788;10.334;2023-12-28T05:56:17;43.95;;;31.33;;
28174;SDS011;59417;44.788;10.334;2023-12-28T05:58:43;39.70;;;29.67;;
28174;SDS011;59417;44.788;10.334;2023-12-28T06:01:09;40.42;;;25.70;;
28174;SDS011;59417;44.788;10.334;2023-12-28T06:03:36;33.92;;;23.77;;
28174;SDS011;59417;44.788;10.334;2023-12-28T06:06:01;38.53;;;22.95;;
28174;SDS011;59417;44.788;10.334;2023-12-28T06:08:34;34.28;;;23.08;;
28174;SDS011;59417;44.788;10.334;2023-12-28T06:10:59;28.13;;;22.33;;
28174;SDS011;59417;44.788;10.334;2023-12-28T06:13:27;32.78;;;22.10;;
28174;SDS011;59417;44.788;10.334;2023-12-28T06:15:54;31.33;;;22.40;;
28174;SDS011;59417;44.788;10.334;2023-12-28T06:18:21;35.03;;;23.60;;
28174;SDS011;59417;44.788;10.334;2023-12-28T06:20:48;34.50;;;24.10;;
28174;SDS011;59417;44.788;10.334;2023-12-28T06:23:16;33.45;;;23.23;;
28174;SDS011;59417;44.788;10.334;2023-12-28T06:25:56;28.23;;;21.75;;
28174;SDS011;59417;44.788;10.334;2023-12-28T06:28:26;28.80;;;21.23;;
28174;SDS011;59417;44.788;10.334;2023-12-28T06:30:57;29.30;;;21.10;;
28174;SDS011;59417;44.788;10.334;2023-12-28T06:33:30;29.65;;;20.50;;
28174;SDS011;59417;44.788;10.334;2023-12-28T06:36:09;28.98;;;20.42;;
28174;SDS011;59417;44.788;10.334;2023-12-28T06:38:48;28.35;;;20.55;;
28174;SDS011;59417;44.788;10.334;2023-12-28T06:41:19;32.00;;;20.90;;
28174;SDS011;59417;44.788;10.334;2023-12-28T06:43:45;28.83;;;19.83;;
28174;SDS011;59417;44.788;10.334;2023-12-28T06:46:12;27.67;;;19.58;;
28174;SDS011;59417;44.788;10.334;2023-12-28T06:48:44;26.20;;;18.80;;
28174;SDS011;59417;44.788;10.334;2023-12-28T06:51:21;33.42;;;21.10;;
28174;SDS011;59417;44.788;10.334;2023-12-28T06:53:51;29.98;;;20.00;;
28174;SDS011;59417;44.788;10.334;2023-12-28T06:56:25;30.15;;;20.95;;
28174;SDS011;59417;44.788;10.334;2023-12-28T06:58:52;26.52;;;19.25;;
28174;SDS011;59417;44.788;10.334;2023-12-28T07:01:19;27.38;;;20.20;;
28174;SDS011;59417;44.788;10.334;2023-12-28T07:03:45;30.38;;;21.02;;
28174;SDS011;59417;44.788;10.334;2023-12-28T07:06:13;31.30;;;21.33;;
28174;SDS011;59417;44.788;10.334;2023-12-28T07:08:42;27.75;;;21.05;;
28174;SDS011;59417;44.788;10.334;2023-12-28T07:11:11;31.48;;;21.42;;
28174;SDS011;59417;44.788;10.334;2023-12-28T07:13:38;30.70;;;23.17;;
28174;SDS011;59417;44.788;10.334;2023-12-28T07:16:05;38.10;;;23.50;;
28174;SDS011;59417;44.788;10.334;2023-12-28T07:18:33;36.60;;;24.75;;
28174;SDS011;59417;44.788;10.334;2023-12-28T07:21:02;35.40;;;24.35;;
28174;SDS011;59417;44.788;10.334;2023-12-28T07:23:31;36.85;;;23.85;;
28174;SDS011;59417;44.788;10.334;2023-12-28T07:25:58;35.25;;;25.13;;
28174;SDS011;59417;44.788;10.334;2023-12-28T07:28:25;37.42;;;25.17;;
28174;SDS011;59417;44.788;10.334;2023-12-28T07:30:51;33.95;;;24.23;;
28174;SDS011;59417;44.788;10.334;2023-12-28T07:33:19;32.05;;;21.75;;
28174;SDS011;59417;44.788;10.334;2023-12-28T07:35:47;32.85;;;22.38;;
28174;SDS011;59417;44.788;10.334;2023-12-28T07:38:17;38.03;;;26.58;;
28174;SDS011;59417;44.788;10.334;2023-12-28T07:40:49;37.13;;;25.08;;
28174;SDS011;59417;44.788;10.334;2023-12-28T07:43:19;35.10;;;26.00;;
28174;SDS011;59417;44.788;10.334;2023-12-28T07:45:45;32.20;;;26.17;;
28174;SDS011;59417;44.788;10.334;2023-12-28T07:48:11;37.35;;;24.80;;
28174;SDS011;59417;44.788;10.334;2023-12-28T07:50:37;38.15;;;25.95;;
28174;SDS011;59417;44.788;10.334;2023-12-28T07:53:03;37.83;;;26.10;;
28174;SDS011;59417;44.788;10.334;2023-12-28T07:55:29;42.05;;;27.00;;
28174;SDS011;59417;44.788;10.334;2023-12-28T07:57:56;36.17;;;27.55;;
28174;SDS011;59417;44.788;10.334;2023-12-28T08:00:24;39.90;;;29.27;;
28174;SDS011;59417;44.788;10.334;2023-12-28T08:02:50;41.53;;;28.15;;
28174;SDS011;59417;44.788;10.334;2023-12-28T08:05:18;42.85;;;28.95;;
28174;SDS011;59417;44.788;10.334;2023-12-28T08:07:46;44.95;;;32.30;;
28174;SDS011;59417;44.788;10.334;2023-12-28T08:10:12;43.85;;;31.13;;
28174;SDS011;59417;44.788;10.334;2023-12-28T08:12:39;55.55;;;34.50;;
28174;SDS011;59417;44.788;10.334;2023-12-28T08:15:06;56.28;;;35.80;;
28174;SDS011;59417;44.788;10.334;2023-12-28T08:17:34;53.13;;;35.40;;
28174;SDS011;59417;44.788;10.334;2023-12-28T08:20:01;48.72;;;35.03;;
28174;SDS011;59417;44.788;10.334;2023-12-28T08:22:32;48.20;;;35.40;;
28174;SDS011;59417;44.788;10.334;2023-12-28T08:24:59;49.83;;;34.97;;
28174;SDS011;59417;44.788;10.334;2023-12-28T08:27:25;51.65;;;34.63;;
28174;SDS011;59417;44.788;10.334;2023-12-28T08:29:53;47.53;;;33.25;;
28174;SDS011;59417;44.788;10.334;2023-12-28T08:32:19;49.97;;;33.97;;
28174;SDS011;59417;44.788;10.334;2023-12-28T08:34:46;55.38;;;41.03;;
28174;SDS011;59417;44.788;10.334;2023-12-28T08:37:13;57.22;;;40.05;;
28174;SDS011;59417;44.788;10.334;2023-12-28T08:39:39;58.78;;;39.63;;
28174;SDS011;59417;44.788;10.334;2023-12-28T08:42:05;64.72;;;40.70;;
28174;SDS011;59417;44.788;10.334;2023-12-28T08:44:33;65.95;;;42.17;;
28174;SDS011;59417;44.788;10.334;2023-12-28T08:47:01;67.47;;;43.58;;
28174;SDS011;59417;44.788;10.334;2023-12-28T08:49:28;63.13;;;45.13;;
28174;SDS011;59417;44.788;10.334;2023-12-28T08:51:55;65.20;;;46.40;;
28174;SDS011;59417;44.788;10.334;2023-12-28T08:54:27;63.47;;;44.78;;
28174;SDS011;59417;44.788;10.334;2023-12-28T08:56:53;65.28;;;46.22;;
28174;SDS011;59417;44.788;10.334;2023-12-28T08:59:19;61.83;;;45.92;;
28174;SDS011;59417;44.788;10.334;2023-12-28T09:01:47;66.60;;;48.22;;
28174;SDS011;59417;44.788;10.334;2023-12-28T09:04:15;66.38;;;48.40;;
28174;SDS011;59417;44.788;10.334;2023-12-28T09:06:55;67.55;;;44.88;;
28174;SDS011;59417;44.788;10.334;2023-12-28T09:09:22;69.20;;;46.60;;
28174;SDS011;59417;44.788;10.334;2023-12-28T09:11:48;62.30;;;46.78;;
28174;SDS011;59417;44.788;10.334;2023-12-28T09:14:34;68.30;;;46.72;;
28174;SDS011;59417;44.788;10.334;2023-12-28T09:17:07;67.97;;;44.15;;
28174;SDS011;59417;44.788;10.334;2023-12-28T09:19:42;60.53;;;47.15;;
28174;SDS011;59417;44.788;10.334;2023-12-28T09:22:08;69.43;;;48.28;;
28174;SDS011;59417;44.788;10.334;2023-12-28T09:24:35;68.90;;;47.92;;
28174;SDS011;59417;44.788;10.334;2023-12-28T09:27:02;65.78;;;47.13;;
28174;SDS011;59417;44.788;10.334;2023-12-28T09:29:28;69.03;;;48.38;;
28174;SDS011;59417;44.788;10.334;2023-12-28T09:31:55;70.15;;;48.05;;
28174;SDS011;59417;44.788;10.334;2023-12-28T09:34:23;66.35;;;50.22;;
28174;SDS011;59417;44.788;10.334;2023-12-28T09:39:27;68.22;;;48.30;;
28174;SDS011;59417;44.788;10.334;2023-12-28T09:42:04;69.05;;;47.70;;
28174;SDS011;59417;44.788;10.334;2023-12-28T09:44:39;75.13;;;50.78;;
28174;SDS011;59417;44.788;10.334;2023-12-28T09:47:10;70.45;;;49.22;;
28174;SDS011;59417;44.788;10.334;2023-12-28T09:49:38;73.43;;;52.25;;
28174;SDS011;59417;44.788;10.334;2023-12-28T09:52:06;70.07;;;50.40;;
28174;SDS011;59417;44.788;10.334;2023-12-28T09:54:34;71.30;;;51.45;;
28174;SDS011;59417;44.788;10.334;2023-12-28T09:57:02;76.50;;;54.25;;
28174;SDS011;59417;44.788;10.334;2023-12-28T09:59:31;74.97;;;50.95;;
28174;SDS011;59417;44.788;10.334;2023-12-28T10:02:00;69.63;;;51.53;;
28174;SDS011;59417;44.788;10.334;2023-12-28T10:04:34;71.78;;;51.20;;
28174;SDS011;59417;44.788;10.334;2023-12-28T10:07:08;72.72;;;50.42;;
28174;SDS011;59417;44.788;10.334;2023-12-28T10:09:42;70.35;;;49.13;;
28174;SDS011;59417;44.788;10.334;2023-12-28T10:12:17;78.93;;;56.03;;
28174;SDS011;59417;44.788;10.334;2023-12-28T10:14:51;69.55;;;51.50;;
28174;SDS011;59417;44.788;10.334;2023-12-28T10:17:20;78.00;;;50.53;;
28174;SDS011;59417;44.788;10.334;2023-12-28T10:19:59;79.22;;;52.38;;
28174;SDS011;59417;44.788;10.334;2023-12-28T10:22:39;79.13;;;53.40;;
28174;SDS011;59417;44.788;10.334;2023-12-28T10:25:14;73.85;;;53.78;;
28174;SDS011;59417;44.788;10.334;2023-12-28T10:27:45;78.72;;;53.78;;
28174;SDS011;59417;44.788;10.334;2023-12-28T10:30:22;75.90;;;52.55;;
28174;SDS011;59417;44.788;10.334;2023-12-28T10:33:00;73.53;;;53.45;;
28174;SDS011;59417;44.788;10.334;2023-12-28T10:35:34;78.43;;;55.33;;
28174;SDS011;59417;44.788;10.334;2023-12-28T10:38:05;77.40;;;53.25;;
28174;SDS011;59417;44.788;10.334;2023-12-28T10:40:48;85.22;;;54.03;;
28174;SDS011;59417;44.788;10.334;2023-12-28T10:43:35;76.53;;;53.63;;
28174;SDS011;59417;44.788;10.334;2023-12-28T10:46:27;76.38;;;52.13;;
28174;SDS011;59417;44.788;10.334;2023-12-28T10:49:20;74.85;;;52.67;;
28174;SDS011;59417;44.788;10.334;2023-12-28T10:51:50;75.20;;;52.25;;
28174;SDS011;59417;44.788;10.334;2023-12-28T10:54:20;70.50;;;50.22;;
28174;SDS011;59417;44.788;10.334;2023-12-28T10:56:49;67.78;;;49.88;;
28174;SDS011;59417;44.788;10.334;2023-12-28T11:02:45;65.55;;;47.25;;
28174;SDS011;59417;44.788;10.334;2023-12-28T11:05:17;72.60;;;50.95;;
28174;SDS011;59417;44.788;10.334;2023-12-28T11:07:47;74.25;;;49.83;;
28174;SDS011;59417;44.788;10.334;2023-12-28T11:10:24;71.75;;;48.92;;
28174;SDS011;59417;44.788;10.334;2023-12-28T11:12:56;75.78;;;50.53;;
28174;SDS011;59417;44.788;10.334;2023-12-28T11:15:34;67.40;;;47.33;;
28174;SDS011;59417;44.788;10.334;2023-12-28T11:18:18;68.65;;;48.50;;
28174;SDS011;59417;44.788;10.334;2023-12-28T11:20:46;66.97;;;47.45;;
28174;SDS011;59417;44.788;10.334;2023-12-28T11:23:14;63.38;;;47.47;;
28174;SDS011;59417;44.788;10.334;2023-12-28T11:25:40;65.95;;;47.65;;
28174;SDS011;59417;44.788;10.334;2023-12-28T11:28:09;61.72;;;45.10;;
28174;SDS011;59417;44.788;10.334;2023-12-28T11:30:36;63.47;;;48.17;;
28174;SDS011;59417;44.788;10.334;2023-12-28T11:33:10;70.95;;;48.33;;
28174;SDS011;59417;44.788;10.334;2023-12-28T11:35:36;72.38;;;47.72;;
28174;SDS011;59417;44.788;10.334;2023-12-28T11:38:06;74.30;;;48.33;;
28174;SDS011;59417;44.788;10.334;2023-12-28T11:40:59;67.35;;;44.92;;
28174;SDS011;59417;44.788;10.334;2023-12-28T11:46:01;65.05;;;46.47;;
28174;SDS011;59417;44.788;10.334;2023-12-28T11:52:25;67.40;;;45.15;;
28174;SDS011;59417;44.788;10.334;2023-12-28T11:54:53;68.22;;;46.63;;
28174;SDS011;59417;44.788;10.334;2023-12-28T11:57:20;70.75;;;46.50;;
28174;SDS011;59417;44.788;10.334;2023-12-28T12:00:00;69.10;;;47.15;;
28174;SDS011;59417;44.788;10.334;2023-12-28T12:02:33;67.68;;;46.70;;
28174;SDS011;59417;44.788;10.334;2023-12-28T12:04:59;74.90;;;49.83;;
28174;SDS011;59417;44.788;10.334;2023-12-28T12:07:30;76.13;;;49.17;;
28174;SDS011;59417;44.788;10.334;2023-12-28T12:10:03;74.68;;;50.35;;
28174;SDS011;59417;44.788;10.334;2023-12-28T12:12:34;74.57;;;49.88;;
28174;SDS011;59417;44.788;10.334;2023-12-28T12:15:10;72.38;;;50.25;;
28174;SDS011;59417;44.788;10.334;2023-12-28T12:17:49;70.97;;;49.80;;
28174;SDS011;59417;44.788;10.334;2023-12-28T12:20:17;65.80;;;49.85;;
28174;SDS011;59417;44.788;10.334;2023-12-28T12:22:51;76.40;;;50.10;;
28174;SDS011;59417;44.788;10.334;2023-12-28T12:25:25;68.35;;;48.03;;
28174;SDS011;59417;44.788;10.334;2023-12-28T12:28:06;66.18;;;46.78;;
28174;SDS011;59417;44.788;10.334;2023-12-28T12:30:34;70.80;;;47.47;;
28174;SDS011;59417;44.788;10.334;2023-12-28T12:33:05;69.65;;;48.97;;
28174;SDS011;59417;44.788;10.334;2023-12-28T12:35:41;71.30;;;50.00;;
28174;SDS011;59417;44.788;10.334;2023-12-28T12:38:11;71.60;;;50.65;;
28174;SDS011;59417;44.788;10.334;2023-12-28T12:40:41;70.25;;;52.58;;
28174;SDS011;59417;44.788;10.334;2023-12-28T12:43:08;78.57;;;52.70;;
28174;SDS011;59417;44.788;10.334;2023-12-28T12:45:42;75.55;;;54.28;;
28174;SDS011;59417;44.788;10.334;2023-12-28T12:48:11;78.50;;;52.40;;
28174;SDS011;59417;44.788;10.334;2023-12-28T12:50:39;77.97;;;55.13;;
28174;SDS011;59417;44.788;10.334;2023-12-28T12:53:10;73.22;;;51.45;;
28174;SDS011;59417;44.788;10.334;2023-12-28T12:55:43;72.03;;;55.55;;
28174;SDS011;59417;44.788;10.334;2023-12-28T12:58:13;75.38;;;52.67;;
28174;SDS011;59417;44.788;10.334;2023-12-28T13:00:44;73.47;;;53.28;;
28174;SDS011;59417;44.788;10.334;2023-12-28T13:03:19;71.40;;;53.22;;
28174;SDS011;59417;44.788;10.334;2023-12-28T13:05:56;76.40;;;52.75;;
28174;SDS011;59417;44.788;10.334;2023-12-28T13:08:24;74.75;;;48.80;;
28174;SDS011;59417;44.788;10.334;2023-12-28T13:10:52;74.88;;;54.20;;
28174;SDS011;59417;44.788;10.334;2023-12-28T13:13:19;71.72;;;52.95;;
28174;SDS011;59417;44.788;10.334;2023-12-28T13:15:45;70.32;;;50.92;;
28174;SDS011;59417;44.788;10.334;2023-12-28T13:18:11;72.45;;;52.92;;
28174;SDS011;59417;44.788;10.334;2023-12-28T13:20:42;85.30;;;52.25;;
28174;SDS011;59417;44.788;10.334;2023-12-28T13:23:11;78.07;;;52.88;;
28174;SDS011;59417;44.788;10.334;2023-12-28T13:25:41;71.00;;;53.53;;
28174;SDS011;59417;44.788;10.334;2023-12-28T13:28:10;81.00;;;54.33;;
28174;SDS011;59417;44.788;10.334;2023-12-28T13:30:42;76.47;;;54.20;;
28174;SDS011;59417;44.788;10.334;2023-12-28T13:33:08;80.63;;;56.47;;
28174;SDS011;59417;44.788;10.334;2023-12-28T13:35:34;78.40;;;54.88;;
28174;SDS011;59417;44.788;10.334;2023-12-28T13:38:00;75.47;;;54.72;;
28174;SDS011;59417;44.788;10.334;2023-12-28T13:40:29;79.10;;;54.10;;
28174;SDS011;59417;44.788;10.334;2023-12-28T13:42:58;72.57;;;52.03;;
28174;SDS011;59417;44.788;10.334;2023-12-28T13:45:24;77.03;;;52.22;;
28174;SDS011;59417;44.788;10.334;2023-12-28T13:47:50;74.60;;;51.88;;
28174;SDS011;59417;44.788;10.334;2023-12-28T13:50:16;74.38;;;50.25;;
28174;SDS011;59417;44.788;10.334;2023-12-28T13:52:46;78.43;;;52.28;;
28174;SDS011;59417;44.788;10.334;2023-12-28T13:55:12;71.75;;;53.00;;
28174;SDS011;59417;44.788;10.334;2023-12-28T13:57:38;86.05;;;54.88;;
28174;SDS011;59417;44.788;10.334;2023-12-28T14:00:05;74.35;;;53.30;;
28174;SDS011;59417;44.788;10.334;2023-12-28T14:02:39;75.72;;;54.22;;
28174;SDS011;59417;44.788;10.334;2023-12-28T14:05:06;77.25;;;54.95;;
28174;SDS011;59417;44.788;10.334;2023-12-28T14:07:32;72.68;;;51.42;;
28174;SDS011;59417;44.788;10.334;2023-12-28T14:09:58;73.72;;;49.88;;
28174;SDS011;59417;44.788;10.334;2023-12-28T14:12:24;81.07;;;52.53;;
28174;SDS011;59417;44.788;10.334;2023-12-28T14:14:51;69.95;;;50.58;;
28174;SDS011;59417;44.788;10.334;2023-12-28T14:17:17;74.25;;;48.60;;
28174;SDS011;59417;44.788;10.334;2023-12-28T14:19:45;69.93;;;52.17;;
28174;SDS011;59417;44.788;10.334;2023-12-28T14:22:12;72.47;;;51.80;;
28174;SDS011;59417;44.788;10.334;2023-12-28T14:24:43;70.90;;;50.42;;
28174;SDS011;59417;44.788;10.334;2023-12-28T14:27:10;71.03;;;51.47;;
28174;SDS011;59417;44.788;10.334;2023-12-28T14:29:37;72.65;;;52.08;;
28174;SDS011;59417;44.788;10.334;2023-12-28T14:32:04;70.35;;;48.50;;
28174;SDS011;59417;44.788;10.334;2023-12-28T14:34:33;71.43;;;50.92;;
28174;SDS011;59417;44.788;10.334;2023-12-28T14:37:03;74.13;;;50.05;;
28174;SDS011;59417;44.788;10.334;2023-12-28T14:39:29;70.82;;;50.35;;
28174;SDS011;59417;44.788;10.334;2023-12-28T14:41:55;75.18;;;52.30;;
28174;SDS011;59417;44.788;10.334;2023-12-28T14:44:23;73.18;;;50.97;;
28174;SDS011;59417;44.788;10.334;2023-12-28T14:46:50;74.70;;;49.10;;
28174;SDS011;59417;44.788;10.334;2023-12-28T14:49:33;69.30;;;49.72;;